sensor_id;sensor_type;location;lat;lon;timestamp;pressure;altitude;pressure_sealevel;temperature;humidity
64698;BME280;51124;53.394;-6.294;2023-11-19T00:02:13;99227.90;;;19.77;11.82
64698;BME280;51124;53.394;-6.294;2023-11-19T00:04:40;99230.45;;;19.39;11.55
64698;BME280;51124;53.394;-6.294;2023-11-19T00:07:08;99223.90;;;18.79;11.56
64698;BME280;51124;53.394;-6.294;2023-11-19T00:09:36;99218.93;;;20.01;11.22
64698;BME280;51124;53.394;-6.294;2023-11-19T00:12:03;99213.08;;;19.34;11.25
64698;BME280;51124;53.394;-6.294;2023-11-19T00:14:31;99207.04;;;17.82;11.49
64698;BME280;51124;53.394;-6.294;2023-11-19T00:16:58;99202.83;;;19.44;11.09
64698;BME280;51124;53.394;-6.294;2023-11-19T00:19:25;99201.27;;;19.37;11.10
64698;BME280;51124;53.394;-6.294;2023-11-19T00:21:52;99201.36;;;18.82;11.25
64698;BME280;51124;53.394;-6.294;2023-11-19T00:24:20;99200.15;;;18.91;10.93
64698;BME280;51124;53.394;-6.294;2023-11-19T00:26:47;99205.64;;;18.74;11.07
64698;BME280;51124;53.394;-6.294;2023-11-19T00:29:14;99202.57;;;18.86;10.85
64698;BME280;51124;53.394;-6.294;2023-11-19T00:31:41;99203.56;;;19.21;10.70
64698;BME280;51124;53.394;-6.294;2023-11-19T00:34:08;99215.17;;;19.70;10.65
64698;BME280;51124;53.394;-6.294;2023-11-19T00:36:36;99209.42;;;19.01;10.90
64698;BME280;51124;53.394;-6.294;2023-11-19T00:39:03;99215.83;;;19.15;10.76
64698;BME280;51124;53.394;-6.294;2023-11-19T00:41:30;99214.32;;;19.87;10.45
64698;BME280;51124;53.394;-6.294;2023-11-19T00:43:57;99213.78;;;18.83;10.77
64698;BME280;51124;53.394;-6.294;2023-11-19T00:46:24;99214.49;;;19.37;10.55
64698;BME280;51124;53.394;-6.294;2023-11-19T00:48:52;99213.47;;;19.13;10.71
64698;BME280;51124;53.394;-6.294;2023-11-19T00:51:19;99220.37;;;18.02;11.07
64698;BME280;51124;53.394;-6.294;2023-11-19T00:53:47;99209.30;;;18.90;10.73
64698;BME280;51124;53.394;-6.294;2023-11-19T00:56:14;99210.69;;;19.51;10.49
64698;BME280;51124;53.394;-6.294;2023-11-19T00:58:41;99206.08;;;19.18;10.54
64698;BME280;51124;53.394;-6.294;2023-11-19T01:01:08;99211.73;;;18.58;10.88
64698;BME280;51124;53.394;-6.294;2023-11-19T01:03:35;99216.13;;;19.25;10.53
64698;BME280;51124;53.394;-6.294;2023-11-19T01:06:03;99199.58;;;19.26;10.49
64698;BME280;51124;53.394;-6.294;2023-11-19T01:08:30;99205.14;;;19.37;10.51
64698;BME280;51124;53.394;-6.294;2023-11-19T01:10:58;99198.91;;;20.41;10.32
64698;BME280;51124;53.394;-6.294;2023-11-19T01:13:25;99193.42;;;19.51;10.49
64698;BME280;51124;53.394;-6.294;2023-11-19T01:15:52;99191.60;;;17.95;11.04
64698;BME280;51124;53.394;-6.294;2023-11-19T01:18:19;99186.53;;;19.30;10.73
64698;BME280;51124;53.394;-6.294;2023-11-19T01:20:47;99187.15;;;18.78;10.71
64698;BME280;51124;53.394;-6.294;2023-11-19T01:23:14;99185.53;;;20.40;10.44
64698;BME280;51124;53.394;-6.294;2023-11-19T01:25:41;99173.71;;;18.24;10.86
64698;BME280;51124;53.394;-6.294;2023-11-19T01:28:09;99167.12;;;17.75;10.81
64698;BME280;51124;53.394;-6.294;2023-11-19T01:30:36;99165.42;;;19.41;10.55
64698;BME280;51124;53.394;-6.294;2023-11-19T01:33:03;99165.55;;;19.01;10.67
64698;BME280;51124;53.394;-6.294;2023-11-19T01:35:30;99158.72;;;19.81;10.36
64698;BME280;51124;53.394;-6.294;2023-11-19T01:37:58;99148.20;;;18.77;10.77
64698;BME280;51124;53.394;-6.294;2023-11-19T01:40:25;99153.73;;;19.42;10.30
64698;BME280;51124;53.394;-6.294;2023-11-19T01:42:52;99154.02;;;19.23;10.54
64698;BME280;51124;53.394;-6.294;2023-11-19T01:45:27;99152.77;;;20.02;10.30
64698;BME280;51124;53.394;-6.294;2023-11-19T01:47:54;99155.72;;;21.54;10.64
64698;BME280;51124;53.394;-6.294;2023-11-19T01:50:23;99152.38;;;21.90;10.97
64698;BME280;51124;53.394;-6.294;2023-11-19T01:52:50;99160.58;;;20.69;11.12
64698;BME280;51124;53.394;-6.294;2023-11-19T01:55:19;99157.68;;;22.94;11.26
64698;BME280;51124;53.394;-6.294;2023-11-19T01:57:48;99154.70;;;21.80;12.14
64698;BME280;51124;53.394;-6.294;2023-11-19T02:00:16;99152.46;;;21.54;12.63
64698;BME280;51124;53.394;-6.294;2023-11-19T02:02:45;99158.06;;;22.41;12.36
64698;BME280;51124;53.394;-6.294;2023-11-19T02:05:14;99155.62;;;21.84;12.61
64698;BME280;51124;53.394;-6.294;2023-11-19T02:07:41;99153.38;;;21.88;12.75
64698;BME280;51124;53.394;-6.294;2023-11-19T02:10:09;99155.25;;;20.58;13.12
64698;BME280;51124;53.394;-6.294;2023-11-19T02:12:36;99155.66;;;20.97;13.05
64698;BME280;51124;53.394;-6.294;2023-11-19T02:15:05;99156.26;;;21.13;13.20
64698;BME280;51124;53.394;-6.294;2023-11-19T02:17:33;99157.61;;;21.68;13.00
64698;BME280;51124;53.394;-6.294;2023-11-19T02:20:00;99148.30;;;21.10;13.07
64698;BME280;51124;53.394;-6.294;2023-11-19T02:22:28;99146.25;;;21.61;12.91
64698;BME280;51124;53.394;-6.294;2023-11-19T02:24:58;99142.95;;;20.67;13.41
64698;BME280;51124;53.394;-6.294;2023-11-19T02:27:31;99141.05;;;20.82;13.35
64698;BME280;51124;53.394;-6.294;2023-11-19T02:30:00;99143.03;;;21.77;13.05
64698;BME280;51124;53.394;-6.294;2023-11-19T02:32:29;99140.09;;;21.62;13.08
64698;BME280;51124;53.394;-6.294;2023-11-19T02:34:57;99130.74;;;20.62;13.44
64698;BME280;51124;53.394;-6.294;2023-11-19T02:37:24;99128.95;;;21.57;13.01
64698;BME280;51124;53.394;-6.294;2023-11-19T02:39:52;99124.15;;;21.60;13.09
64698;BME280;51124;53.394;-6.294;2023-11-19T02:42:19;99117.74;;;20.68;13.20
64698;BME280;51124;53.394;-6.294;2023-11-19T02:44:47;99116.89;;;20.86;13.06
64698;BME280;51124;53.394;-6.294;2023-11-19T02:47:14;99118.06;;;19.53;12.59
64698;BME280;51124;53.394;-6.294;2023-11-19T02:49:41;99121.36;;;19.04;12.13
64698;BME280;51124;53.394;-6.294;2023-11-19T02:52:08;99110.07;;;19.91;11.73
64698;BME280;51124;53.394;-6.294;2023-11-19T02:54:36;99112.12;;;19.13;11.76
64698;BME280;51124;53.394;-6.294;2023-11-19T02:57:03;99107.45;;;19.33;11.35
64698;BME280;51124;53.394;-6.294;2023-11-19T02:59:31;99104.41;;;19.44;10.96
64698;BME280;51124;53.394;-6.294;2023-11-19T03:01:59;99107.21;;;18.61;11.08
64698;BME280;51124;53.394;-6.294;2023-11-19T03:04:26;99097.04;;;17.51;11.35
64698;BME280;51124;53.394;-6.294;2023-11-19T03:06:53;99096.08;;;19.11;10.84
64698;BME280;51124;53.394;-6.294;2023-11-19T03:09:20;99095.42;;;19.46;10.78
64698;BME280;51124;53.394;-6.294;2023-11-19T03:11:48;99092.58;;;19.99;10.53
64698;BME280;51124;53.394;-6.294;2023-11-19T03:14:15;99098.69;;;20.04;10.65
64698;BME280;51124;53.394;-6.294;2023-11-19T03:16:44;99096.08;;;18.69;10.73
64698;BME280;51124;53.394;-6.294;2023-11-19T03:19:12;99093.51;;;19.09;10.60
64698;BME280;51124;53.394;-6.294;2023-11-19T03:21:39;99100.12;;;18.89;10.61
64698;BME280;51124;53.394;-6.294;2023-11-19T03:24:07;99101.03;;;18.26;10.60
64698;BME280;51124;53.394;-6.294;2023-11-19T03:26:34;99094.55;;;18.41;10.88
64698;BME280;51124;53.394;-6.294;2023-11-19T03:29:02;99092.12;;;19.26;10.40
64698;BME280;51124;53.394;-6.294;2023-11-19T03:31:29;99087.19;;;18.57;10.54
64698;BME280;51124;53.394;-6.294;2023-11-19T03:33:56;99088.64;;;17.82;10.77
64698;BME280;51124;53.394;-6.294;2023-11-19T03:36:23;99089.44;;;18.96;10.54
64698;BME280;51124;53.394;-6.294;2023-11-19T03:38:50;99083.71;;;19.34;10.38
64698;BME280;51124;53.394;-6.294;2023-11-19T03:41:18;99077.68;;;19.89;10.04
64698;BME280;51124;53.394;-6.294;2023-11-19T03:43:45;99076.40;;;19.06;10.23
64698;BME280;51124;53.394;-6.294;2023-11-19T03:46:20;99074.10;;;18.81;10.39
64698;BME280;51124;53.394;-6.294;2023-11-19T03:48:48;99071.62;;;19.20;10.28
64698;BME280;51124;53.394;-6.294;2023-11-19T03:51:16;99059.37;;;18.49;10.29
64698;BME280;51124;53.394;-6.294;2023-11-19T03:53:44;99058.63;;;19.14;10.56
64698;BME280;51124;53.394;-6.294;2023-11-19T03:56:12;99057.86;;;18.12;10.67
64698;BME280;51124;53.394;-6.294;2023-11-19T03:58:40;99059.07;;;17.61;10.88
64698;BME280;51124;53.394;-6.294;2023-11-19T04:01:10;99059.76;;;17.83;10.65
64698;BME280;51124;53.394;-6.294;2023-11-19T04:03:38;99062.74;;;18.79;10.26
64698;BME280;51124;53.394;-6.294;2023-11-19T04:06:05;99058.69;;;19.62;10.16
64698;BME280;51124;53.394;-6.294;2023-11-19T04:08:33;99059.40;;;20.16;9.95
64698;BME280;51124;53.394;-6.294;2023-11-19T04:11:00;99061.18;;;19.50;10.51
64698;BME280;51124;53.394;-6.294;2023-11-19T04:13:27;99057.50;;;17.62;10.55
64698;BME280;51124;53.394;-6.294;2023-11-19T04:15:55;99054.18;;;18.68;10.17
64698;BME280;51124;53.394;-6.294;2023-11-19T04:18:22;99056.81;;;19.34;10.31
64698;BME280;51124;53.394;-6.294;2023-11-19T04:20:49;99060.53;;;17.99;10.59
64698;BME280;51124;53.394;-6.294;2023-11-19T04:23:16;99050.04;;;19.20;10.40
64698;BME280;51124;53.394;-6.294;2023-11-19T04:25:44;99061.56;;;18.74;10.37
64698;BME280;51124;53.394;-6.294;2023-11-19T04:28:11;99058.37;;;18.75;10.45
64698;BME280;51124;53.394;-6.294;2023-11-19T04:30:39;99050.47;;;17.07;10.80
64698;BME280;51124;53.394;-6.294;2023-11-19T04:33:06;99051.58;;;19.00;10.18
64698;BME280;51124;53.394;-6.294;2023-11-19T04:35:33;99043.46;;;18.34;10.23
64698;BME280;51124;53.394;-6.294;2023-11-19T04:38:00;99042.65;;;18.35;10.37
64698;BME280;51124;53.394;-6.294;2023-11-19T04:40:27;99037.75;;;20.29;10.73
64698;BME280;51124;53.394;-6.294;2023-11-19T04:42:55;99048.52;;;19.50;11.11
64698;BME280;51124;53.394;-6.294;2023-11-19T04:45:22;99049.34;;;18.67;11.13
64698;BME280;51124;53.394;-6.294;2023-11-19T04:47:49;99041.79;;;22.62;11.00
64698;BME280;51124;53.394;-6.294;2023-11-19T04:50:16;99048.82;;;21.30;11.87
64698;BME280;51124;53.394;-6.294;2023-11-19T04:52:44;99040.20;;;22.39;12.06
64698;BME280;51124;53.394;-6.294;2023-11-19T04:55:12;99057.95;;;21.52;12.44
64698;BME280;51124;53.394;-6.294;2023-11-19T04:57:40;99047.59;;;21.91;12.12
64698;BME280;51124;53.394;-6.294;2023-11-19T05:00:08;99042.57;;;21.48;12.56
64698;BME280;51124;53.394;-6.294;2023-11-19T05:02:35;99039.70;;;21.35;12.69
64698;BME280;51124;53.394;-6.294;2023-11-19T05:05:03;99041.56;;;21.29;12.87
64698;BME280;51124;53.394;-6.294;2023-11-19T05:07:31;99034.04;;;20.70;12.91
64698;BME280;51124;53.394;-6.294;2023-11-19T05:09:58;99035.26;;;20.12;12.97
64698;BME280;51124;53.394;-6.294;2023-11-19T05:12:26;99042.99;;;20.31;13.00
64698;BME280;51124;53.394;-6.294;2023-11-19T05:14:53;99035.77;;;21.24;12.91
64698;BME280;51124;53.394;-6.294;2023-11-19T05:17:21;99042.10;;;21.28;12.65
64698;BME280;51124;53.394;-6.294;2023-11-19T05:19:48;99039.17;;;20.91;13.02
64698;BME280;51124;53.394;-6.294;2023-11-19T05:22:16;99035.75;;;21.33;12.79
64698;BME280;51124;53.394;-6.294;2023-11-19T05:24:44;99037.98;;;20.82;13.24
64698;BME280;51124;53.394;-6.294;2023-11-19T05:27:11;99031.00;;;21.36;12.76
64698;BME280;51124;53.394;-6.294;2023-11-19T05:29:39;99033.72;;;21.57;12.66
64698;BME280;51124;53.394;-6.294;2023-11-19T05:32:06;99032.03;;;20.93;12.93
64698;BME280;51124;53.394;-6.294;2023-11-19T05:34:34;99025.53;;;21.52;12.72
64698;BME280;51124;53.394;-6.294;2023-11-19T05:37:01;99034.04;;;19.99;12.95
64698;BME280;51124;53.394;-6.294;2023-11-19T05:39:29;99028.82;;;18.57;12.47
64698;BME280;51124;53.394;-6.294;2023-11-19T05:41:56;99029.35;;;18.14;12.18
64698;BME280;51124;53.394;-6.294;2023-11-19T05:44:23;99023.00;;;17.28;11.95
64698;BME280;51124;53.394;-6.294;2023-11-19T05:46:51;99020.03;;;19.66;11.40
64698;BME280;51124;53.394;-6.294;2023-11-19T05:49:18;99018.38;;;19.93;10.87
64698;BME280;51124;53.394;-6.294;2023-11-19T05:51:45;99019.28;;;18.65;10.99
64698;BME280;51124;53.394;-6.294;2023-11-19T05:54:12;99016.26;;;18.98;10.75
64698;BME280;51124;53.394;-6.294;2023-11-19T05:56:39;99022.04;;;18.30;10.86
64698;BME280;51124;53.394;-6.294;2023-11-19T05:59:07;99018.33;;;18.72;10.56
64698;BME280;51124;53.394;-6.294;2023-11-19T06:01:34;99015.37;;;18.70;10.57
64698;BME280;51124;53.394;-6.294;2023-11-19T06:04:02;99015.73;;;18.93;10.55
64698;BME280;51124;53.394;-6.294;2023-11-19T06:06:30;99010.74;;;18.93;10.38
64698;BME280;51124;53.394;-6.294;2023-11-19T06:08:57;99010.62;;;18.59;10.74
64698;BME280;51124;53.394;-6.294;2023-11-19T06:11:24;99006.48;;;18.90;10.39
64698;BME280;51124;53.394;-6.294;2023-11-19T06:13:51;99014.57;;;18.07;10.52
64698;BME280;51124;53.394;-6.294;2023-11-19T06:16:18;99012.52;;;17.33;10.68
64698;BME280;51124;53.394;-6.294;2023-11-19T06:18:47;99010.89;;;18.72;10.27
64698;BME280;51124;53.394;-6.294;2023-11-19T06:21:14;99005.08;;;19.12;10.04
64698;BME280;51124;53.394;-6.294;2023-11-19T06:23:41;99004.67;;;19.70;10.13
64698;BME280;51124;53.394;-6.294;2023-11-19T06:26:09;99003.17;;;18.76;10.27
64698;BME280;51124;53.394;-6.294;2023-11-19T06:28:36;99002.86;;;18.53;10.21
64698;BME280;51124;53.394;-6.294;2023-11-19T06:31:04;99004.26;;;19.25;10.06
64698;BME280;51124;53.394;-6.294;2023-11-19T06:33:31;99001.38;;;17.79;10.44
64698;BME280;51124;53.394;-6.294;2023-11-19T06:35:59;99003.14;;;18.35;10.28
64698;BME280;51124;53.394;-6.294;2023-11-19T06:38:26;99008.04;;;18.64;10.15
64698;BME280;51124;53.394;-6.294;2023-11-19T06:40:53;99005.96;;;18.59;10.33
64698;BME280;51124;53.394;-6.294;2023-11-19T06:43:20;99005.11;;;18.97;10.03
64698;BME280;51124;53.394;-6.294;2023-11-19T06:45:47;98996.86;;;18.50;10.29
64698;BME280;51124;53.394;-6.294;2023-11-19T06:48:15;98985.32;;;18.56;10.39
64698;BME280;51124;53.394;-6.294;2023-11-19T06:50:42;98990.15;;;19.22;10.18
64698;BME280;51124;53.394;-6.294;2023-11-19T06:53:09;98992.53;;;18.64;10.16
64698;BME280;51124;53.394;-6.294;2023-11-19T06:55:36;98990.45;;;17.84;10.33
64698;BME280;51124;53.394;-6.294;2023-11-19T06:58:05;98986.61;;;18.85;10.08
64698;BME280;51124;53.394;-6.294;2023-11-19T07:00:32;98990.07;;;18.50;10.18
64698;BME280;51124;53.394;-6.294;2023-11-19T07:02:59;98992.63;;;20.98;9.86
64698;BME280;51124;53.394;-6.294;2023-11-19T07:05:26;98996.54;;;18.70;10.18
64698;BME280;51124;53.394;-6.294;2023-11-19T07:07:54;98995.76;;;18.96;10.26
64698;BME280;51124;53.394;-6.294;2023-11-19T07:10:21;98989.84;;;18.68;10.33
64698;BME280;51124;53.394;-6.294;2023-11-19T07:12:48;98990.98;;;19.40;10.15
64698;BME280;51124;53.394;-6.294;2023-11-19T07:15:15;98994.64;;;19.86;10.06
64698;BME280;51124;53.394;-6.294;2023-11-19T07:17:42;98984.06;;;19.12;10.29
64698;BME280;51124;53.394;-6.294;2023-11-19T07:20:11;98992.25;;;17.99;10.38
64698;BME280;51124;53.394;-6.294;2023-11-19T07:22:38;98988.08;;;18.72;10.30
64698;BME280;51124;53.394;-6.294;2023-11-19T07:25:06;98983.63;;;19.04;10.05
64698;BME280;51124;53.394;-6.294;2023-11-19T07:27:33;98987.13;;;18.93;10.03
64698;BME280;51124;53.394;-6.294;2023-11-19T07:30:00;98982.35;;;19.20;10.03
64698;BME280;51124;53.394;-6.294;2023-11-19T07:32:28;98980.99;;;21.52;10.24
64698;BME280;51124;53.394;-6.294;2023-11-19T07:34:55;98977.59;;;19.98;10.85
64698;BME280;51124;53.394;-6.294;2023-11-19T07:37:22;98973.85;;;18.75;10.98
64698;BME280;51124;53.394;-6.294;2023-11-19T07:39:50;98979.49;;;21.38;11.31
64698;BME280;51124;53.394;-6.294;2023-11-19T07:42:17;98976.02;;;21.13;11.85
64698;BME280;51124;53.394;-6.294;2023-11-19T07:44:45;98975.57;;;21.09;12.14
64698;BME280;51124;53.394;-6.294;2023-11-19T07:47:12;98981.30;;;21.43;12.10
64698;BME280;51124;53.394;-6.294;2023-11-19T07:49:40;98980.86;;;21.49;12.13
64698;BME280;51124;53.394;-6.294;2023-11-19T07:52:07;98984.85;;;21.28;12.46
64698;BME280;51124;53.394;-6.294;2023-11-19T07:54:35;98988.31;;;21.56;12.47
64698;BME280;51124;53.394;-6.294;2023-11-19T07:57:02;98992.15;;;20.91;12.53
64698;BME280;51124;53.394;-6.294;2023-11-19T07:59:30;98986.47;;;20.52;12.74
64698;BME280;51124;53.394;-6.294;2023-11-19T08:01:57;98990.70;;;21.13;12.61
64698;BME280;51124;53.394;-6.294;2023-11-19T08:04:25;98999.49;;;21.76;12.57
64698;BME280;51124;53.394;-6.294;2023-11-19T08:06:52;98997.75;;;21.11;12.85
64698;BME280;51124;53.394;-6.294;2023-11-19T08:09:19;98990.95;;;20.81;12.70
64698;BME280;51124;53.394;-6.294;2023-11-19T08:11:47;98991.01;;;20.81;12.81
64698;BME280;51124;53.394;-6.294;2023-11-19T08:14:14;98992.08;;;20.50;12.96
64698;BME280;51124;53.394;-6.294;2023-11-19T08:16:42;98990.42;;;20.70;12.90
64698;BME280;51124;53.394;-6.294;2023-11-19T08:19:09;98996.61;;;20.61;12.86
64698;BME280;51124;53.394;-6.294;2023-11-19T08:21:37;98995.97;;;21.06;12.81
64698;BME280;51124;53.394;-6.294;2023-11-19T08:24:05;98995.18;;;21.58;12.68
64698;BME280;51124;53.394;-6.294;2023-11-19T08:26:32;99004.71;;;21.72;12.62
64698;BME280;51124;53.394;-6.294;2023-11-19T08:29:00;99001.24;;;19.73;12.85
64698;BME280;51124;53.394;-6.294;2023-11-19T08:31:27;99005.23;;;18.65;12.45
64698;BME280;51124;53.394;-6.294;2023-11-19T08:33:54;99004.98;;;17.39;12.29
64698;BME280;51124;53.394;-6.294;2023-11-19T08:36:22;99003.86;;;18.74;11.60
64698;BME280;51124;53.394;-6.294;2023-11-19T08:38:49;99001.36;;;19.47;11.38
64698;BME280;51124;53.394;-6.294;2023-11-19T08:41:16;98992.46;;;20.14;10.88
64698;BME280;51124;53.394;-6.294;2023-11-19T08:43:43;99010.18;;;18.23;11.23
64698;BME280;51124;53.394;-6.294;2023-11-19T08:46:12;99005.66;;;19.33;10.78
64698;BME280;51124;53.394;-6.294;2023-11-19T08:48:39;99006.94;;;19.86;10.60
64698;BME280;51124;53.394;-6.294;2023-11-19T08:51:06;99013.80;;;18.69;10.71
64698;BME280;51124;53.394;-6.294;2023-11-19T08:53:34;99011.92;;;18.32;10.64
64698;BME280;51124;53.394;-6.294;2023-11-19T08:56:01;99005.78;;;19.30;10.56
64698;BME280;51124;53.394;-6.294;2023-11-19T08:58:28;99024.36;;;17.45;11.00
64698;BME280;51124;53.394;-6.294;2023-11-19T09:00:55;99020.01;;;18.91;10.45
64698;BME280;51124;53.394;-6.294;2023-11-19T09:03:23;99008.80;;;18.94;10.23
64698;BME280;51124;53.394;-6.294;2023-11-19T09:05:50;99009.20;;;18.26;10.49
64698;BME280;51124;53.394;-6.294;2023-11-19T09:08:17;99005.03;;;17.83;10.66
64698;BME280;51124;53.394;-6.294;2023-11-19T09:10:45;99008.81;;;18.78;10.22
64698;BME280;51124;53.394;-6.294;2023-11-19T09:13:12;99011.44;;;18.55;10.33
64698;BME280;51124;53.394;-6.294;2023-11-19T09:15:39;99003.37;;;17.97;10.39
64698;BME280;51124;53.394;-6.294;2023-11-19T09:18:07;99006.44;;;18.46;10.32
64698;BME280;51124;53.394;-6.294;2023-11-19T09:20:34;99009.80;;;18.44;10.29
64698;BME280;51124;53.394;-6.294;2023-11-19T09:23:01;99011.68;;;18.44;10.29
64698;BME280;51124;53.394;-6.294;2023-11-19T09:25:28;99016.55;;;18.47;10.29
64698;BME280;51124;53.394;-6.294;2023-11-19T09:27:55;99016.24;;;18.86;10.11
64698;BME280;51124;53.394;-6.294;2023-11-19T09:30:23;99012.28;;;18.66;10.05
64698;BME280;51124;53.394;-6.294;2023-11-19T09:32:50;99022.75;;;18.66;10.24
64698;BME280;51124;53.394;-6.294;2023-11-19T09:35:17;99030.13;;;18.36;10.10
64698;BME280;51124;53.394;-6.294;2023-11-19T09:37:45;99030.14;;;17.87;10.24
64698;BME280;51124;53.394;-6.294;2023-11-19T09:40:12;99034.61;;;18.57;10.25
64698;BME280;51124;53.394;-6.294;2023-11-19T09:42:44;99050.32;;;18.69;10.25
64698;BME280;51124;53.394;-6.294;2023-11-19T09:45:15;99030.22;;;18.57;10.33
64698;BME280;51124;53.394;-6.294;2023-11-19T09:47:44;99044.36;;;19.21;10.02
64698;BME280;51124;53.394;-6.294;2023-11-19T09:50:14;99040.48;;;19.05;10.01
64698;BME280;51124;53.394;-6.294;2023-11-19T09:52:43;99055.80;;;18.17;10.17
64698;BME280;51124;53.394;-6.294;2023-11-19T09:55:10;99051.93;;;17.84;10.35
64698;BME280;51124;53.394;-6.294;2023-11-19T09:57:40;99056.36;;;18.21;10.34
64698;BME280;51124;53.394;-6.294;2023-11-19T10:00:08;99065.69;;;18.75;10.12
64698;BME280;51124;53.394;-6.294;2023-11-19T10:02:37;99063.49;;;18.80;10.23
64698;BME280;51124;53.394;-6.294;2023-11-19T10:05:07;99072.09;;;19.65;9.86
64698;BME280;51124;53.394;-6.294;2023-11-19T10:07:36;99074.36;;;17.53;10.52
64698;BME280;51124;53.394;-6.294;2023-11-19T10:10:03;99076.68;;;18.65;10.21
64698;BME280;51124;53.394;-6.294;2023-11-19T10:12:31;99081.97;;;19.85;10.20
64698;BME280;51124;53.394;-6.294;2023-11-19T10:14:59;99093.11;;;17.76;10.60
64698;BME280;51124;53.394;-6.294;2023-11-19T10:17:32;99086.04;;;17.91;10.29
64698;BME280;51124;53.394;-6.294;2023-11-19T10:19:59;99099.51;;;18.30;10.09
64698;BME280;51124;53.394;-6.294;2023-11-19T10:22:27;99098.47;;;19.90;9.68
64698;BME280;51124;53.394;-6.294;2023-11-19T10:24:54;99100.00;;;20.41;9.70
64698;BME280;51124;53.394;-6.294;2023-11-19T10:27:23;99122.81;;;20.32;10.99
64698;BME280;51124;53.394;-6.294;2023-11-19T10:29:50;99127.89;;;20.97;11.05
64698;BME280;51124;53.394;-6.294;2023-11-19T10:32:18;99134.08;;;19.42;11.29
64698;BME280;51124;53.394;-6.294;2023-11-19T10:34:46;99139.72;;;22.30;11.28
64698;BME280;51124;53.394;-6.294;2023-11-19T10:37:29;99148.97;;;21.41;12.02
64698;BME280;51124;53.394;-6.294;2023-11-19T10:39:54;99150.21;;;19.79;12.73
64698;BME280;51124;53.394;-6.294;2023-11-19T10:42:17;99150.98;;;19.96;12.73
64698;BME280;51124;53.394;-6.294;2023-11-19T10:44:44;99157.60;;;20.69;12.72
64698;BME280;51124;53.394;-6.294;2023-11-19T10:47:13;99167.13;;;20.77;12.56
64698;BME280;51124;53.394;-6.294;2023-11-19T10:49:41;99169.63;;;20.45;13.00
64698;BME280;51124;53.394;-6.294;2023-11-19T10:52:10;99174.89;;;19.98;12.98
64698;BME280;51124;53.394;-6.294;2023-11-19T10:54:38;99178.70;;;20.49;12.85
64698;BME280;51124;53.394;-6.294;2023-11-19T10:57:12;99180.64;;;20.69;12.57
64698;BME280;51124;53.394;-6.294;2023-11-19T10:59:36;99188.23;;;19.20;13.76
64698;BME280;51124;53.394;-6.294;2023-11-19T11:02:06;99191.22;;;19.00;14.20
64698;BME280;51124;53.394;-6.294;2023-11-19T11:04:41;99190.22;;;19.59;13.88
64698;BME280;51124;53.394;-6.294;2023-11-19T11:07:09;99199.63;;;20.64;13.31
64698;BME280;51124;53.394;-6.294;2023-11-19T11:09:37;99210.30;;;19.07;13.81
64698;BME280;51124;53.394;-6.294;2023-11-19T11:12:06;99208.04;;;19.89;13.48
64698;BME280;51124;53.394;-6.294;2023-11-19T11:14:34;99215.14;;;19.70;13.65
64698;BME280;51124;53.394;-6.294;2023-11-19T11:17:05;99224.30;;;20.04;13.68
64698;BME280;51124;53.394;-6.294;2023-11-19T11:19:33;99221.59;;;20.34;13.36
64698;BME280;51124;53.394;-6.294;2023-11-19T11:22:01;99225.36;;;19.96;13.40
64698;BME280;51124;53.394;-6.294;2023-11-19T11:24:44;99230.81;;;19.96;13.11
64698;BME280;51124;53.394;-6.294;2023-11-19T11:27:15;99227.69;;;18.42;12.76
64698;BME280;51124;53.394;-6.294;2023-11-19T11:29:35;99231.03;;;18.25;12.15
64698;BME280;51124;53.394;-6.294;2023-11-19T11:32:00;99232.17;;;18.77;11.73
64698;BME280;51124;53.394;-6.294;2023-11-19T11:34:36;99242.91;;;19.44;11.59
64698;BME280;51124;53.394;-6.294;2023-11-19T11:36:53;99239.28;;;16.98;12.07
64698;BME280;51124;53.394;-6.294;2023-11-19T11:39:14;99245.35;;;16.78;12.01
64698;BME280;51124;53.394;-6.294;2023-11-19T11:41:42;99242.48;;;17.45;11.61
64698;BME280;51124;53.394;-6.294;2023-11-19T11:44:09;99249.47;;;17.70;11.31
64698;BME280;51124;53.394;-6.294;2023-11-19T11:47:08;99254.57;;;16.55;11.22
64698;BME280;51124;53.394;-6.294;2023-11-19T11:49:05;99257.40;;;18.89;9.99
64698;BME280;51124;53.394;-6.294;2023-11-19T11:52:01;99254.08;;;18.20;10.09
64698;BME280;51124;53.394;-6.294;2023-11-19T11:54:09;99259.10;;;16.44;11.15
64698;BME280;51124;53.394;-6.294;2023-11-19T11:56:39;99255.26;;;19.59;10.20
64698;BME280;51124;53.394;-6.294;2023-11-19T11:59:14;99257.54;;;19.75;10.20
64698;BME280;51124;53.394;-6.294;2023-11-19T12:01:35;99264.42;;;19.39;10.37
64698;BME280;51124;53.394;-6.294;2023-11-19T12:04:02;99267.07;;;19.37;10.39
64698;BME280;51124;53.394;-6.294;2023-11-19T12:06:32;99264.10;;;19.45;10.48
64698;BME280;51124;53.394;-6.294;2023-11-19T12:09:01;99265.18;;;19.15;10.45
64698;BME280;51124;53.394;-6.294;2023-11-19T12:11:30;99269.65;;;19.35;10.57
64698;BME280;51124;53.394;-6.294;2023-11-19T12:13:58;99272.35;;;19.80;10.51
64698;BME280;51124;53.394;-6.294;2023-11-19T12:16:25;99272.51;;;20.27;10.44
64698;BME280;51124;53.394;-6.294;2023-11-19T12:18:52;99283.83;;;19.74;10.51
64698;BME280;51124;53.394;-6.294;2023-11-19T12:21:36;99279.58;;;19.94;10.48
64698;BME280;51124;53.394;-6.294;2023-11-19T12:23:53;99285.28;;;20.22;10.50
64698;BME280;51124;53.394;-6.294;2023-11-19T12:26:39;99285.83;;;20.56;10.57
64698;BME280;51124;53.394;-6.294;2023-11-19T12:28:59;99288.29;;;20.11;10.52
64698;BME280;51124;53.394;-6.294;2023-11-19T12:31:16;99294.90;;;20.62;10.53
64698;BME280;51124;53.394;-6.294;2023-11-19T12:33:43;99297.46;;;20.66;10.36
64698;BME280;51124;53.394;-6.294;2023-11-19T12:36:12;99299.86;;;19.67;10.64
64698;BME280;51124;53.394;-6.294;2023-11-19T12:38:39;99303.41;;;19.98;10.64
64698;BME280;51124;53.394;-6.294;2023-11-19T12:41:09;99304.81;;;20.09;10.48
64698;BME280;51124;53.394;-6.294;2023-11-19T12:43:36;99310.14;;;20.05;10.57
64698;BME280;51124;53.394;-6.294;2023-11-19T12:46:11;99312.31;;;21.34;10.35
64698;BME280;51124;53.394;-6.294;2023-11-19T12:48:33;99317.09;;;20.28;10.51
64698;BME280;51124;53.394;-6.294;2023-11-19T12:51:00;99326.28;;;20.93;10.58
64698;BME280;51124;53.394;-6.294;2023-11-19T12:53:28;99336.96;;;22.47;10.54